Time;durP1;ratioP1;P1;durP2;ratioP2;P2;SDS_P1;SDS_P2;PMS_P1;PMS_P2;Temp;Humidity;BMP_temperature;BMP_pressure;BME280_temperature;BME280_humidity;BME280_pressure;Samples;Min_cycle;Max_cycle;Signal;HPM_P1;HPM_P2
2022/04/19 00:00:22;;;;;;;5.35;4.18;;;;;;;6.78;61.22;99093.63;5035539;28;20048;-93
2022/04/19 00:02:47;;;;;;;4.30;3.90;;;;;;;7.33;61.22;99183.00;5059840;28;20032;-90
2022/04/19 00:05:13;;;;;;;6.00;4.28;;;;;;;7.18;61.21;99161.03;5061830;28;20047;-90
2022/04/19 00:07:39;;;;;;;4.68;4.28;;;;;;;7.40;61.14;99196.28;5060954;28;20053;-92
2022/04/19 00:10:05;;;;;;;4.55;3.97;;;;;;;7.38;61.52;99193.00;5037357;28;20096;-93
2022/04/19 00:12:31;;;;;;;3.90;3.47;;;;;;;7.34;61.22;99208.28;5053895;28;20115;-92
2022/04/19 00:14:56;;;;;;;3.53;3.22;;;;;;;6.67;61.47;99098.19;5034872;28;20056;-92
2022/04/19 00:17:22;;;;;;;3.65;3.35;;;;;;;5.93;61.08;98977.69;5052620;28;20032;-92
2022/04/19 00:19:47;;;;;;;4.18;3.88;;;;;;;6.33;61.78;99035.41;5052698;28;20124;-93
2022/04/19 00:22:13;;;;;;;4.03;3.63;;;;;;;6.98;61.62;99134.28;5052426;28;20084;-93
2022/04/19 00:24:41;;;;;;;3.72;3.42;;;;;;;7.50;61.63;99220.59;5052240;28;20482;-93
2022/04/19 00:27:07;;;;;;;3.75;3.17;;;;;;;7.07;61.21;99149.06;5034426;28;20559;-92
2022/04/19 00:29:32;;;;;;;4.03;3.65;;;;;;;7.46;61.53;99229.78;5034555;28;20036;-93
2022/04/19 00:31:57;;;;;;;3.72;3.42;;;;;;;6.58;61.86;99103.59;5052460;28;20029;-92
2022/04/19 00:34:23;;;;;;;3.58;3.28;;;;;;;7.18;61.54;99192.53;5034419;28;20115;-92
2022/04/19 00:36:48;;;;;;;3.67;3.30;;;;;;;7.31;61.40;99212.03;5052137;28;20063;-91
2022/04/19 00:39:14;;;;;;;3.78;3.47;;;;;;;6.81;61.56;99122.97;5034406;28;20116;-92
2022/04/19 00:41:39;;;;;;;3.30;3.10;;;;;;;6.91;61.58;99143.81;5034432;28;20082;-93
2022/04/19 00:44:05;;;;;;;3.58;3.28;;;;;;;6.08;61.80;99035.56;5033772;28;20029;-92
2022/04/19 00:46:30;;;;;;;2.95;2.75;;;;;;;7.48;61.83;99222.56;5034058;28;20412;-93
2022/04/19 00:48:56;;;;;;;3.58;3.28;;;;;;;7.45;62.13;99223.72;5034245;28;20029;-92
2022/04/19 00:51:24;;;;;;;3.65;3.35;;;;;;;6.67;62.18;99107.88;5034231;28;20623;-92
2022/04/19 00:53:49;;;;;;;4.10;3.80;;;;;;;6.88;62.11;99165.94;5034130;28;20033;-93
2022/04/19 00:56:15;;;;;;;3.28;3.08;;;;;;;7.49;62.07;99246.03;5034155;28;20027;-93
2022/04/19 00:58:41;;;;;;;3.63;3.33;;;;;;;6.96;62.14;99152.00;5034424;28;20051;-93
2022/04/19 01:01:06;;;;;;;3.90;3.60;;;;;;;7.34;62.54;99230.09;5034246;28;20021;-93
2022/04/19 01:03:31;;;;;;;4.43;3.55;;;;;;;7.29;62.71;99214.00;5034440;28;20051;-93
2022/04/19 01:05:58;;;;;;;3.65;3.35;;;;;;;7.45;62.49;99228.97;5034283;28;20534;-92
2022/04/19 01:08:24;;;;;;;4.13;3.80;;;;;;;7.31;62.29;99225.19;5034654;28;20033;-93
2022/04/19 01:10:50;;;;;;;4.70;4.20;;;;;;;6.50;62.36;99106.22;5034524;28;20029;-93
2022/04/19 01:13:18;;;;;;;5.00;4.30;;;;;;;6.69;62.76;99103.31;5034347;28;20032;-93
2022/04/19 01:15:49;;;;;;;4.43;4.03;;;;;;;7.35;62.51;99204.66;5034621;28;20053;-93
2022/04/19 01:18:20;;;;;;;3.85;3.40;;;;;;;7.43;62.22;99220.44;5034199;28;20032;-93
2022/04/19 01:20:48;;;;;;;4.10;3.80;;;;;;;7.43;62.05;99237.97;5051952;28;20086;-93
2022/04/19 01:23:13;;;;;;;3.85;3.50;;;;;;;7.06;62.58;99181.53;5034820;28;20044;-90
2022/04/19 01:25:38;;;;;;;3.78;3.47;;;;;;;6.06;62.20;99035.72;5033311;28;20025;-90
2022/04/19 01:28:04;;;;;;;3.75;3.45;;;;;;;7.13;62.55;99189.56;5033316;28;20028;-90
2022/04/19 01:30:32;;;;;;;4.35;3.95;;;;;;;7.44;62.32;99224.72;5051296;28;20493;-90
2022/04/19 01:32:58;;;;;;;3.40;3.10;;;;;;;7.39;62.54;99232.22;5033358;28;20558;-90
2022/04/19 01:35:23;;;;;;;4.15;3.15;;;;;;;6.00;62.18;98999.69;5051217;28;20029;-91
2022/04/19 01:37:50;;;;;;;3.45;3.15;;;;;;;6.87;62.56;99153.81;5033175;28;20028;-90
2022/04/19 01:40:17;;;;;;;4.10;3.38;;;;;;;5.72;62.32;98955.38;5033224;28;20040;-90
2022/04/19 01:42:47;;;;;;;3.25;2.95;;;;;;;7.41;62.62;99225.00;5033391;28;20529;-90
2022/04/19 01:45:17;;;;;;;3.88;3.58;;;;;;;6.03;62.55;99026.38;5033276;28;20033;-91
2022/04/19 01:47:45;;;;;;;4.38;3.60;;;;;;;6.81;62.34;99143.97;5033189;28;20032;-91
2022/04/19 01:50:14;;;;;;;4.30;3.90;;;;;;;7.28;62.42;99227.31;5033283;28;20029;-90
2022/04/19 01:52:41;;;;;;;3.75;3.45;;;;;;;5.92;62.04;99007.50;5050972;28;20036;-90
2022/04/19 01:55:08;;;;;;;3.42;3.13;;;;;;;7.37;62.39;99220.25;5033059;28;20091;-90
2022/04/19 01:57:34;;;;;;;3.58;3.28;;;;;;;7.38;62.44;99235.84;5036614;28;20064;-91
2022/04/19 02:00:01;;;;;;;3.55;3.25;;;;;;;6.82;62.28;99156.13;5036895;28;20087;-90
2022/04/19 02:02:26;;;;;;;3.38;3.13;;;;;;;5.98;61.82;98999.00;5037158;28;20036;-90
2022/04/19 02:04:52;;;;;;;3.45;3.22;;;;;;;6.61;62.17;99103.28;5055064;28;20021;-91
2022/04/19 02:07:17;;;;;;;3.65;3.35;;;;;;;7.15;62.18;99171.84;5036634;28;20025;-91
2022/04/19 02:09:43;;;;;;;4.70;3.80;;;;;;;6.53;62.34;99083.09;5037054;28;20028;-90
2022/04/19 02:12:09;;;;;;;4.00;3.70;;;;;;;7.41;62.44;99216.31;5036724;28;20103;-91
2022/04/19 02:14:35;;;;;;;4.13;3.83;;;;;;;6.67;62.14;99094.75;5037053;28;20045;-90
2022/04/19 02:17:01;;;;;;;4.07;3.67;;;;;;;7.39;62.26;99226.97;5036511;28;20529;-90
2022/04/19 02:19:26;;;;;;;3.90;3.50;;;;;;;7.28;62.19;99214.19;5036764;28;20025;-90
2022/04/19 02:21:52;;;;;;;4.20;3.85;;;;;;;6.43;62.37;99060.66;5054422;28;20032;-89
2022/04/19 02:24:17;;;;;;;4.65;4.25;;;;;;;6.59;62.47;99118.34;5037107;28;20025;-94
2022/04/19 02:26:43;;;;;;;4.03;3.63;;;;;;;7.37;62.49;99215.00;5037311;28;20032;-93
2022/04/19 02:29:08;;;;;;;4.57;3.80;;;;;;;7.37;62.53;99236.81;5036996;28;20454;-95
2022/04/19 02:31:33;;;;;;;4.53;3.40;;;;;;;6.24;62.36;99067.03;5037228;28;20111;-94
2022/04/19 02:33:59;;;;;;;3.72;3.42;;;;;;;6.28;62.57;99065.72;5037210;28;20066;-93
2022/04/19 02:36:25;;;;;;;4.20;3.90;;;;;;;6.82;62.58;99158.75;5037318;28;20167;-92
2022/04/19 02:38:51;;;;;;;4.05;3.75;;;;;;;6.48;62.60;99100.31;5037253;28;20024;-93
2022/04/19 02:41:16;;;;;;;4.57;4.05;;;;;;;6.75;62.76;99146.44;5054531;28;20520;-94
2022/04/19 02:43:42;;;;;;;3.42;3.13;;;;;;;7.24;63.25;99265.38;5037144;28;20025;-93
2022/04/19 02:46:07;;;;;;;2.80;2.60;;;;;;;7.10;63.26;99203.84;5037258;28;20111;-94
2022/04/19 02:48:34;;;;;;;2.95;2.72;;;;;;;7.01;63.01;99189.09;5036792;28;20033;-93
2022/04/19 02:51:00;;;;;;;3.40;3.10;;;;;;;7.26;62.75;99231.91;5036578;28;20482;-94
2022/04/19 02:53:26;;;;;;;3.25;2.95;;;;;;;6.95;62.71;99187.94;5036929;28;20028;-93
2022/04/19 02:55:51;;;;;;;3.28;2.95;;;;;;;6.78;62.51;99160.03;5036885;28;20025;-93
2022/04/19 02:58:17;;;;;;;4.18;3.78;;;;;;;6.45;62.88;99098.03;5036601;28;20071;-94
2022/04/19 03:00:43;;;;;;;4.07;3.67;;;;;;;6.10;62.69;99065.03;5036604;28;20032;-94
2022/04/19 03:03:09;;;;;;;3.40;3.08;;;;;;;6.91;62.43;99165.63;5036963;28;20482;-94
2022/04/19 03:05:38;;;;;;;3.05;2.80;;;;;;;5.22;62.24;98931.03;5036356;28;20032;-93
2022/04/19 03:08:03;;;;;;;4.03;3.10;;;;;;;6.44;62.23;99104.25;5035591;28;20033;-93
2022/04/19 03:10:29;;;;;;;3.45;3.13;;;;;;;6.56;62.44;99147.53;5036917;28;20090;-93
2022/04/19 03:12:54;;;;;;;3.10;2.80;;;;;;;6.72;62.51;99186.94;5036406;28;20082;-94
2022/04/19 03:15:20;;;;;;;2.83;2.63;;;;;;;6.58;62.30;99135.91;5036157;28;20528;-92
2022/04/19 03:17:47;;;;;;;3.03;2.72;;;;;;;5.83;62.44;99045.94;5036199;28;20478;-94
2022/04/19 03:20:13;;;;;;;2.60;2.40;;;;;;;7.24;62.06;99234.69;5036477;28;20120;-93
2022/04/19 03:28:09;;;;;;;2.85;2.45;;;;;;;6.87;62.69;99203.69;5054463;28;20094;-93
2022/04/19 03:30:35;;;;;;;2.70;2.50;;;;;;;5.98;62.19;99075.81;5035801;28;20032;-93
2022/04/19 03:33:01;;;;;;;3.10;2.80;;;;;;;5.50;62.29;98983.97;5053700;28;20417;-94
2022/04/19 03:35:26;;;;;;;4.38;2.85;;;;;;;5.98;62.60;99103.84;5035893;28;20509;-94
2022/04/19 03:37:52;;;;;;;3.03;2.80;;;;;;;6.12;62.70;99105.84;5035990;28;20028;-93
2022/04/19 03:40:17;;;;;;;2.63;2.42;;;;;;;6.73;62.71;99206.94;5035933;28;20025;-93
2022/04/19 03:42:43;;;;;;;3.47;3.17;;;;;;;6.64;63.28;99213.94;5035906;28;20102;-93
2022/04/19 03:45:10;;;;;;;3.80;3.40;;;;;;;7.04;62.76;99254.38;5035936;28;20053;-94
2022/04/19 03:47:35;;;;;;;3.13;2.83;;;;;;;5.97;63.22;99103.00;5035879;28;20060;-94
2022/04/19 03:50:01;;;;;;;4.15;3.30;;;;;;;6.79;63.04;99208.91;5035766;28;20091;-93
2022/04/19 03:52:27;;;;;;;3.20;2.97;;;;;;;7.09;62.75;99259.13;5035955;28;20020;-94
2022/04/19 03:54:52;;;;;;;4.15;3.15;;;;;;;6.26;62.76;99133.22;5035647;28;20525;-94
2022/04/19 03:57:18;;;;;;;3.65;3.03;;;;;;;7.12;63.41;99261.44;5035458;28;20052;-93
2022/04/19 03:59:44;;;;;;;3.83;3.22;;;;;;;6.14;62.61;99111.75;5053024;28;20090;-93
2022/04/19 04:02:10;;;;;;;3.60;3.30;;;;;;;6.78;62.80;99188.91;5035548;28;20542;-93
2022/04/19 04:04:36;;;;;;;4.07;3.72;;;;;;;7.18;63.22;99279.16;5035429;28;20029;-94
2022/04/19 04:07:04;;;;;;;5.25;4.75;;;;;;;7.17;62.91;99254.72;5035339;28;20037;-93
2022/04/19 04:09:32;;;;;;;5.30;4.43;;;;;;;5.81;62.83;99050.50;5053429;28;20029;-93
2022/04/19 04:12:01;;;;;;;5.22;4.72;;;;;;;7.22;63.25;99264.72;5035408;28;20021;-93
2022/04/19 04:14:27;;;;;;;5.20;4.80;;;;;;;6.45;63.15;99159.16;5035285;28;20075;-93
2022/04/19 04:16:53;;;;;;;5.82;5.32;;;;;;;6.82;62.73;99213.84;5035110;28;20467;-93
2022/04/19 04:19:18;;;;;;;5.70;5.22;;;;;;;6.05;62.95;99070.75;5034897;28;20478;-93
2022/04/19 04:21:44;;;;;;;5.40;4.90;;;;;;;7.04;63.21;99236.00;5035321;28;20119;-93
2022/04/19 04:24:09;;;;;;;5.78;5.28;;;;;;;6.89;63.12;99237.63;5035082;28;20108;-93
2022/04/19 04:26:34;;;;;;;6.35;5.75;;;;;;;5.74;62.87;99039.84;5034807;28;20028;-93
2022/04/19 04:29:00;;;;;;;6.80;6.20;;;;;;;5.59;62.75;99065.00;5034908;28;20086;-93
2022/04/19 04:31:25;;;;;;;7.35;6.55;;;;;;;6.74;63.09;99216.44;5034829;28;20546;-94
2022/04/19 04:33:51;;;;;;;6.60;5.95;;;;;;;6.27;62.73;99119.13;5034859;28;20029;-93
2022/04/19 04:36:16;;;;;;;7.05;6.40;;;;;;;5.77;63.16;99048.38;5052389;28;20025;-93
2022/04/19 04:38:41;;;;;;;7.65;6.95;;;;;;;6.17;62.75;99106.16;5034872;28;20159;-93
2022/04/19 04:41:07;;;;;;;8.38;7.57;;;;;;;6.94;62.93;99225.66;5034779;28;20021;-93
2022/04/19 04:43:32;;;;;;;6.20;5.70;;;;;;;6.21;63.19;99117.97;5034898;28;20445;-93
2022/04/19 04:51:25;;;;;;;7.75;6.78;;;;;;;6.52;62.81;99183.75;5052625;28;20551;-93
2022/04/19 04:53:51;;;;;;;6.43;5.82;;;;;;;6.10;62.77;99134.00;5034464;28;20025;-93
2022/04/19 04:56:16;;;;;;;6.57;5.82;;;;;;;6.63;63.03;99182.63;5034305;28;20028;-92
2022/04/19 04:58:42;;;;;;;7.82;6.15;;;;;;;7.22;63.00;99260.31;5034043;28;20024;-93
2022/04/19 05:01:07;;;;;;;6.82;6.18;;;;;;;6.81;62.69;99200.88;5051810;28;20116;-93
2022/04/19 05:03:33;;;;;;;7.47;6.63;;;;;;;7.06;62.46;99241.91;5034219;28;20021;-93
2022/04/19 05:05:58;;;;;;;6.55;5.72;;;;;;;7.08;62.28;99239.94;5051839;28;20029;-92
2022/04/19 05:08:24;;;;;;;6.60;5.90;;;;;;;6.42;62.37;99180.44;5034403;28;20020;-92
2022/04/19 05:10:49;;;;;;;8.25;6.85;;;;;;;6.63;62.64;99186.06;5034464;28;20481;-93
2022/04/19 05:13:15;;;;;;;13.15;10.43;;;;;;;6.62;62.48;99212.47;5034096;28;20056;-92
2022/04/19 05:15:40;;;;;;;6.93;6.25;;;;;;;6.78;62.76;99232.69;5034116;28;20025;-93
2022/04/19 05:18:05;;;;;;;7.05;6.45;;;;;;;6.71;62.51;99211.53;5038445;28;20025;-91
2022/04/19 05:20:31;;;;;;;6.80;6.20;;;;;;;5.49;62.55;99014.56;5058576;28;20036;-92
2022/04/19 05:22:57;;;;;;;6.90;5.82;;;;;;;6.97;62.35;99269.97;5041725;28;20029;-91
2022/04/19 05:25:22;;;;;;;7.30;6.60;;;;;;;6.85;61.80;99267.81;5058415;28;20524;-92
2022/04/19 05:27:47;;;;;;;6.90;6.30;;;;;;;6.81;61.99;99227.13;5040371;28;20029;-91
2022/04/19 05:30:13;;;;;;;8.95;7.65;;;;;;;6.91;61.61;99278.47;5037703;28;20029;-91
2022/04/19 05:32:38;;;;;;;6.03;5.43;;;;;;;5.70;61.75;99084.84;5038895;28;20035;-94
2022/04/19 05:35:04;;;;;;;6.80;6.20;;;;;;;5.35;61.88;99007.31;5038239;28;20024;-93
2022/04/19 05:37:29;;;;;;;6.60;6.00;;;;;;;7.00;61.94;99282.75;5038081;28;20107;-93
2022/04/19 05:39:55;;;;;;;7.22;5.65;;;;;;;7.08;61.89;99312.63;5038035;28;20033;-94
2022/04/19 05:42:20;;;;;;;7.28;6.60;;;;;;;7.22;62.06;99298.88;5032180;28;20056;-93
2022/04/19 05:44:46;;;;;;;7.47;6.78;;;;;;;7.08;61.75;99265.38;5031510;28;20067;-93
2022/04/19 05:47:14;;;;;;;7.95;7.13;;;;;;;6.16;62.33;99111.56;5036693;28;20506;-94
2022/04/19 05:49:40;;;;;;;7.25;5.63;;;;;;;6.29;61.94;99156.50;5055495;28;20028;-94
2022/04/19 05:52:05;;;;;;;6.50;5.30;;;;;;;7.52;61.52;99332.41;5038017;28;20405;-93
2022/04/19 05:54:31;;;;;;;6.05;5.45;;;;;;;7.18;61.20;99268.66;5038029;28;20037;-93
2022/04/19 05:56:56;;;;;;;5.25;4.20;;;;;;;6.99;61.41;99243.53;5050328;28;20045;-93
2022/04/19 05:59:22;;;;;;;5.13;4.60;;;;;;;7.52;61.11;99336.84;5055269;28;20025;-93
2022/04/19 06:07:15;;;;;;;6.45;5.85;;;;;;;7.20;60.96;99314.78;5056157;28;20122;-93
2022/04/19 06:09:40;;;;;;;8.52;6.63;;;;;;;7.29;60.97;99292.78;5037734;28;20067;-93
2022/04/19 06:12:06;;;;;;;7.60;6.32;;;;;;;6.86;60.67;99244.03;5055166;28;20094;-93
2022/04/19 06:14:32;;;;;;;7.60;6.90;;;;;;;6.75;60.95;99217.28;5037635;28;20560;-93
2022/04/19 06:16:57;;;;;;;5.03;4.53;;;;;;;6.68;60.82;99198.69;5038279;28;20021;-93
2022/04/19 06:19:23;;;;;;;5.57;5.07;;;;;;;6.78;60.86;99214.31;5028642;28;20482;-93
2022/04/19 06:21:48;;;;;;;5.47;4.97;;;;;;;6.58;60.76;99205.91;5034453;28;20083;-92
2022/04/19 06:24:14;;;;;;;6.03;5.43;;;;;;;6.53;60.74;99166.22;5029634;28;20035;-92
2022/04/19 06:26:39;;;;;;;5.60;5.10;;;;;;;7.42;60.66;99302.00;5029973;28;20421;-92
2022/04/19 06:29:06;;;;;;;5.55;5.05;;;;;;;7.16;60.36;99263.56;5026257;28;20037;-92
2022/04/19 06:31:32;;;;;;;5.00;4.55;;;;;;;7.51;60.56;99330.75;5021027;28;20037;-91
2022/04/19 06:33:57;;;;;;;6.00;5.40;;;;;;;7.11;60.25;99265.88;5032203;28;20421;-88
2022/04/19 06:36:22;;;;;;;4.93;4.45;;;;;;;7.43;60.58;99293.13;5024371;28;20024;-90
2022/04/19 06:38:48;;;;;;;5.82;4.40;;;;;;;7.08;60.45;99254.88;5026278;28;20030;-90
2022/04/19 06:41:13;;;;;;;4.00;3.67;;;;;;;7.64;60.51;99381.00;5051238;28;20087;-90
2022/04/19 06:43:39;;;;;;;7.72;7.10;;;;;;;7.42;60.60;99294.94;5015892;28;20192;-89
2022/04/19 06:46:04;;;;;;;5.90;4.70;;;;;;;6.58;60.23;99149.00;5035811;28;20037;-89
2022/04/19 06:48:29;;;;;;;4.57;4.18;;;;;;;7.08;60.25;99216.31;5023255;28;20477;-90
2022/04/19 06:50:55;;;;;;;5.55;4.55;;;;;;;7.22;59.91;99236.66;5023594;28;20048;-90
2022/04/19 06:53:20;;;;;;;4.88;3.80;;;;;;;7.42;60.19;99271.28;5018890;28;20507;-88
2022/04/19 06:55:45;;;;;;;4.30;3.90;;;;;;;7.27;60.39;99231.75;5043336;28;20033;-89
2022/04/19 06:58:11;;;;;;;4.38;3.97;;;;;;;6.99;60.03;99191.88;5018509;28;20037;-91
2022/04/19 07:00:36;;;;;;;5.03;4.53;;;;;;;7.82;59.99;99335.34;5033640;28;20472;-91
2022/04/19 07:03:02;;;;;;;6.53;5.93;;;;;;;7.38;60.03;99261.28;5018290;28;20088;-90
2022/04/19 07:05:27;;;;;;;6.00;5.45;;;;;;;7.73;59.86;99303.00;5020684;28;20025;-90
2022/04/19 07:07:53;;;;;;;5.30;4.63;;;;;;;7.87;60.22;99310.22;5020918;28;20068;-90
2022/04/19 07:10:18;;;;;;;4.47;4.07;;;;;;;7.76;59.61;99292.16;5030361;28;20429;-90
2022/04/19 07:12:44;;;;;;;5.03;4.57;;;;;;;6.21;59.56;99041.13;5033848;28;20033;-91
2022/04/19 07:15:10;;;;;;;5.53;5.00;;;;;;;8.38;59.43;99363.41;5020028;28;20492;-90
2022/04/19 07:17:40;;;;;;;5.22;4.78;;;;;;;8.02;59.62;99305.09;5019685;28;20056;-90
2022/04/19 07:28:19;;;;;;;5.13;4.38;;;;;;;7.47;58.41;99195.47;5036662;28;20056;-90
2022/04/19 07:30:44;;;;;;;7.85;6.70;;;;;;;8.39;58.90;99348.47;5042237;28;20485;-89
2022/04/19 07:33:10;;;;;;;5.80;5.15;;;;;;;8.25;58.57;99342.06;5050209;28;20021;-95
2022/04/19 07:35:35;;;;;;;10.30;9.32;;;;;;;7.00;58.72;99153.31;5033995;28;20025;-93
2022/04/19 07:38:02;;;;;;;7.07;6.18;;;;;;;7.71;58.78;99252.41;5037575;28;20032;-94
2022/04/19 07:40:29;;;;;;;6.57;5.63;;;;;;;8.08;58.48;99309.69;5018012;28;20029;-96
2022/04/19 07:42:54;;;;;;;6.43;5.53;;;;;;;8.27;59.02;99325.13;5020625;28;20029;-93
2022/04/19 07:45:20;;;;;;;6.47;5.65;;;;;;;7.36;58.58;99208.94;5027497;28;20482;-96
2022/04/19 07:47:45;;;;;;;6.13;5.50;;;;;;;8.32;59.13;99353.53;5019992;28;20033;-96
2022/04/19 07:50:11;;;;;;;6.38;5.65;;;;;;;8.38;58.59;99359.97;5044079;28;20033;-93
2022/04/19 07:52:36;;;;;;;5.88;5.28;;;;;;;7.74;58.79;99277.53;5031294;28;20028;-93
2022/04/19 07:55:01;;;;;;;6.32;5.18;;;;;;;8.54;58.84;99370.44;5033274;28;20718;-96
2022/04/19 07:57:27;;;;;;;5.28;4.88;;;;;;;7.77;58.73;99243.03;5036906;28;20103;-95
2022/04/19 07:59:54;;;;;;;6.78;5.85;;;;;;;8.28;58.12;99307.53;5048097;28;20031;-96
2022/04/19 08:02:20;;;;;;;6.45;5.40;;;;;;;8.49;58.21;99320.97;5046982;28;20021;-95
2022/04/19 08:04:46;;;;;;;6.93;6.25;;;;;;;8.62;58.09;99361.72;5049113;28;20032;-95
2022/04/19 08:07:11;;;;;;;12.25;9.13;;;;;;;8.70;58.05;99361.69;5056858;28;20025;-95
2022/04/19 08:09:37;;;;;;;7.93;7.05;;;;;;;8.38;58.01;99318.69;5065821;28;20039;-94
2022/04/19 08:12:03;;;;;;;7.65;6.20;;;;;;;7.63;57.72;99213.03;5077669;28;20024;-95
2022/04/19 08:14:28;;;;;;;6.47;5.80;;;;;;;7.89;57.85;99247.78;5057380;28;20032;-95
2022/04/19 08:16:53;;;;;;;7.47;6.38;;;;;;;8.62;57.43;99345.91;5034120;28;20520;-95
2022/04/19 08:19:19;;;;;;;7.70;6.50;;;;;;;6.91;57.02;99071.16;5028770;28;20044;-93
2022/04/19 08:21:44;;;;;;;6.28;5.72;;;;;;;7.23;57.26;99111.44;5033543;28;20099;-95
2022/04/19 08:24:10;;;;;;;6.20;5.60;;;;;;;7.57;56.61;99204.00;5022020;28;20025;-96
2022/04/19 08:26:35;;;;;;;7.47;6.57;;;;;;;7.92;56.68;99228.22;5022518;28;20047;-96
2022/04/19 08:29:01;;;;;;;6.70;6.03;;;;;;;8.97;56.78;99386.78;5021275;28;20410;-96
2022/04/19 08:31:27;;;;;;;6.10;5.57;;;;;;;8.53;57.16;99314.38;5024099;28;20129;-96
2022/04/19 08:33:53;;;;;;;7.38;6.68;;;;;;;9.00;56.86;99370.63;5047877;28;20021;-96
2022/04/19 08:36:19;;;;;;;7.22;6.63;;;;;;;8.81;56.10;99330.53;5021060;28;20513;-96
2022/04/19 08:38:46;;;;;;;7.30;6.40;;;;;;;8.91;56.40;99346.13;5025577;28;20074;-95
2022/04/19 08:41:13;;;;;;;8.38;7.38;;;;;;;8.54;55.84;99308.13;5043428;28;20074;-94
2022/04/19 08:43:38;;;;;;;7.75;7.13;;;;;;;8.39;56.39;99299.28;5034691;28;20522;-96
2022/04/19 08:46:05;;;;;;;9.52;8.30;;;;;;;8.85;56.18;99345.00;5034516;28;20160;-95
2022/04/19 08:48:31;;;;;;;7.60;6.90;;;;;;;8.04;55.89;99215.53;5029229;28;20108;-95
2022/04/19 08:51:01;;;;;;;7.35;6.68;;;;;;;8.55;56.02;99282.63;5025336;28;20028;-95
2022/04/19 08:58:55;;;;;;;7.40;6.70;;;;;;;8.22;55.23;99250.34;5038073;28;20170;-95
2022/04/19 09:01:20;;;;;;;8.70;7.88;;;;;;;8.71;55.56;99310.69;5017984;28;20056;-95
2022/04/19 09:03:48;;;;;;;8.30;7.38;;;;;;;9.26;55.66;99371.16;5015160;28;20528;-96
2022/04/19 09:06:13;;;;;;;7.65;6.95;;;;;;;9.32;55.73;99380.97;5030290;28;20033;-95
2022/04/19 09:08:38;;;;;;;9.10;8.20;;;;;;;8.07;55.35;99179.19;5034788;28;20551;-96
2022/04/19 09:11:06;;;;;;;8.18;7.32;;;;;;;8.62;54.95;99236.22;5033928;28;20033;-95
2022/04/19 09:13:32;;;;;;;8.88;7.90;;;;;;;9.49;55.13;99366.72;5035083;28;20028;-94
2022/04/19 09:16:06;;;;;;;10.80;9.70;;;;;;;9.45;54.99;99362.78;5051930;28;20021;-95
2022/04/19 09:18:35;;;;;;;10.45;9.35;;;;;;;9.47;55.35;99373.97;5034808;28;20083;-95
2022/04/19 09:21:02;;;;;;;11.30;10.20;;;;;;;9.47;55.20;99363.44;5025759;28;20025;-94
2022/04/19 09:23:29;;;;;;;11.13;10.02;;;;;;;8.84;55.05;99276.72;5015002;28;20029;-95
2022/04/19 09:26:05;;;;;;;10.20;9.30;;;;;;;9.14;54.34;99340.91;5015245;28;20513;-95
2022/04/19 09:28:34;;;;;;;13.60;11.90;;;;;;;8.55;55.23;99261.56;5014925;28;20133;-94
2022/04/19 09:31:01;;;;;;;10.65;9.63;;;;;;;8.75;54.91;99307.53;5040620;28;20413;-96
2022/04/19 09:33:30;;;;;;;11.90;9.52;;;;;;;8.52;54.58;99273.25;5044129;28;20560;-94
2022/04/19 09:35:55;;;;;;;10.50;9.10;;;;;;;9.19;54.73;99376.28;5023484;28;20024;-95
2022/04/19 09:38:38;;;;;;;10.43;9.43;;;;;;;8.44;54.03;99269.84;5022113;28;20115;-95
2022/04/19 09:41:14;;;;;;;14.23;12.73;;;;;;;8.99;54.72;99369.00;5015107;28;20033;-95
2022/04/19 09:43:40;;;;;;;15.73;14.13;;;;;;;8.46;54.98;99302.06;5015307;28;20025;-94
2022/04/19 09:46:06;;;;;;;14.88;13.32;;;;;;;8.35;55.08;99320.84;5014938;28;20022;-95
2022/04/19 09:48:34;;;;;;;13.00;11.75;;;;;;;8.88;54.68;99375.41;5045668;28;20028;-96
2022/04/19 09:51:03;;;;;;;18.63;16.70;;;;;;;8.84;55.35;99369.69;5029968;28;20029;-94
2022/04/19 09:53:40;;;;;;;10.48;9.48;;;;;;;8.56;55.36;99348.25;5029620;28;20028;-96
2022/04/19 09:56:20;;;;;;;13.35;12.05;;;;;;;8.73;55.21;99379.75;5029517;28;20107;-95
2022/04/19 09:58:48;;;;;;;12.20;10.50;;;;;;;8.71;55.83;99381.75;5041313;28;20088;-94
2022/04/19 10:09:36;;;;;;;13.15;10.60;;;;;;;7.77;55.76;99256.19;5046042;28;20051;-93
2022/04/19 10:12:07;;;;;;;11.73;10.52;;;;;;;8.78;55.70;99388.78;5034324;28;20406;-94
2022/04/19 10:14:34;;;;;;;11.40;10.13;;;;;;;8.86;55.99;99382.66;5029480;28;20040;-96
2022/04/19 10:17:04;;;;;;;9.73;8.77;;;;;;;8.55;55.91;99351.84;5032836;28;20541;-96
2022/04/19 10:19:30;;;;;;;10.38;9.27;;;;;;;7.78;55.79;99189.50;5018205;28;20574;-95
2022/04/19 10:21:58;;;;;;;11.85;10.65;;;;;;;7.43;55.32;99169.69;5018231;28;20029;-94
2022/04/19 10:24:27;;;;;;;10.63;9.63;;;;;;;8.13;55.53;99243.44;5033165;28;20078;-93
2022/04/19 10:26:52;;;;;;;9.52;7.78;;;;;;;8.51;54.52;99310.28;5025169;28;20044;-95
2022/04/19 10:29:27;;;;;;;10.05;9.15;;;;;;;9.07;54.41;99379.47;5022293;28;20049;-95
2022/04/19 10:32:01;;;;;;;9.07;8.20;;;;;;;9.03;54.47;99363.19;5032549;28;20582;-95
2022/04/19 10:34:29;;;;;;;12.68;10.18;;;;;;;8.43;54.66;99252.41;5032815;28;20028;-96
2022/04/19 10:36:57;;;;;;;9.43;8.52;;;;;;;9.36;54.62;99411.25;5032673;28;20102;-94
2022/04/19 10:39:25;;;;;;;9.00;8.20;;;;;;;9.45;54.28;99373.31;5035684;28;20417;-95
2022/04/19 10:42:05;;;;;;;9.85;8.95;;;;;;;9.54;53.56;99355.63;5036906;28;20028;-94
2022/04/19 10:44:46;;;;;;;9.00;8.13;;;;;;;9.79;53.52;99372.13;5037194;28;20025;-95
2022/04/19 10:47:13;;;;;;;18.95;16.95;;;;;;;9.87;52.89;99364.13;5036319;28;20041;-95
2022/04/19 10:49:51;;;;;;;12.02;10.40;;;;;;;10.13;52.97;99369.03;5031242;28;20021;-96
2022/04/19 10:52:39;;;;;;;9.52;8.60;;;;;;;10.31;52.57;99369.53;5024878;28;20033;-95
2022/04/19 10:55:08;;;;;;;11.13;10.02;;;;;;;10.40;51.82;99370.25;5023145;28;20071;-95
2022/04/19 11:00:48;;;;;;;10.60;9.60;;;;;;;8.63;51.79;99090.47;5034678;28;20445;-93
2022/04/19 11:03:15;;;;;;;11.63;10.52;;;;;;;10.24;51.77;99349.31;5017688;28;20044;-93
2022/04/19 11:05:47;;;;;;;11.20;10.10;;;;;;;10.41;51.79;99377.22;5040825;28;20017;-91
2022/04/19 11:08:24;;;;;;;12.00;10.80;;;;;;;10.37;51.69;99376.72;5024112;28;20029;-92
2022/04/19 11:10:52;;;;;;;13.45;11.93;;;;;;;10.06;51.90;99331.16;5036383;28;20036;-93
2022/04/19 11:13:21;;;;;;;15.10;12.38;;;;;;;9.99;52.16;99309.97;5054319;28;20504;-92
2022/04/19 11:16:00;;;;;;;14.02;12.57;;;;;;;10.13;51.92;99340.81;5054313;28;20490;-93
2022/04/19 11:18:26;;;;;;;14.98;12.55;;;;;;;10.67;51.59;99382.03;5034142;28;20032;-92
2022/04/19 11:20:53;;;;;;;16.42;14.77;;;;;;;10.88;51.56;99360.16;5021176;28;20025;-93
2022/04/19 11:23:21;;;;;;;15.80;14.07;;;;;;;10.75;51.19;99321.22;5037800;28;20049;-93
2022/04/19 11:25:48;;;;;;;13.30;11.90;;;;;;;10.58;50.66;99248.50;5038839;28;20542;-92
2022/04/19 11:28:24;;;;;;;11.77;10.35;;;;;;;9.98;50.05;99130.81;5033004;28;20078;-92
2022/04/19 11:30:50;;;;;;;14.65;11.55;;;;;;;11.94;49.22;99356.88;5026648;28;20025;-92
2022/04/19 11:33:33;;;;;;;12.23;10.85;;;;;;;11.98;48.60;99324.53;5026585;28;20028;-92
2022/04/19 11:36:04;;;;;;;11.07;9.80;;;;;;;12.12;48.61;99375.75;5030473;28;20021;-92
2022/04/19 11:38:32;;;;;;;13.13;11.82;;;;;;;12.08;48.55;99356.78;5036085;28;20465;-92
2022/04/19 11:46:46;;;;;;;15.63;13.13;;;;;;;10.87;49.24;99242.31;5045587;28;20036;-93
2022/04/19 11:49:26;;;;;;;15.52;12.10;;;;;;;11.31;49.85;99342.59;5018333;28;20079;-93
2022/04/19 11:51:55;;;;;;;13.55;12.13;;;;;;;11.27;49.37;99277.91;5035959;28;20485;-92
2022/04/19 11:54:24;;;;;;;12.98;11.77;;;;;;;11.94;48.94;99356.88;5030061;28;20021;-91
2022/04/19 11:56:57;;;;;;;13.18;11.80;;;;;;;11.91;49.16;99363.38;5034103;28;20099;-91
2022/04/19 11:59:34;;;;;;;13.57;12.05;;;;;;;11.79;49.03;99351.63;5022480;28;20098;-92
2022/04/19 12:02:01;;;;;;;13.57;12.18;;;;;;;11.70;49.04;99345.63;5022189;28;20578;-92
2022/04/19 12:04:26;;;;;;;13.40;10.88;;;;;;;10.91;49.30;99239.13;5020748;28;20037;-93
2022/04/19 12:07:01;;;;;;;12.10;10.95;;;;;;;11.58;48.62;99341.84;5015669;28;20017;-93
2022/04/19 12:09:28;;;;;;;13.80;11.32;;;;;;;11.67;49.10;99358.41;5037291;28;20502;-92
2022/04/19 12:11:55;;;;;;;11.45;10.35;;;;;;;11.63;48.68;99357.97;5052777;28;20021;-93
2022/04/19 12:14:25;;;;;;;11.15;10.05;;;;;;;11.59;48.69;99351.41;5016555;28;20454;-93
2022/04/19 12:17:02;;;;;;;10.80;9.63;;;;;;;10.64;48.61;99208.97;5044242;28;20603;-93
2022/04/19 12:19:46;;;;;;;12.90;10.23;;;;;;;11.52;48.40;99347.06;5037633;28;20028;-93
2022/04/19 12:22:22;;;;;;;12.77;11.48;;;;;;;11.63;48.30;99351.88;5053709;28;20024;-93